createdAt,value
2019-05-18T00:00:42.126Z,0.00
2019-05-18T00:01:42.117Z,0.00
2019-05-18T00:02:42.091Z,0.00
2019-05-18T00:03:42.073Z,0.00
2019-05-18T00:04:42.047Z,0.00
2019-05-18T00:05:42.027Z,0.00
2019-05-18T00:06:42.017Z,0.00
2019-05-18T00:07:42.014Z,0.00
2019-05-18T00:08:41.973Z,0.00
2019-05-18T00:09:41.959Z,0.00
2019-05-18T00:10:41.941Z,0.00
2019-05-18T00:11:41.924Z,0.00
2019-05-18T00:12:41.931Z,0.00
2019-05-18T00:13:41.881Z,0.00
2019-05-18T00:14:41.866Z,0.00
2019-05-18T00:15:41.849Z,0.00
2019-05-18T00:16:41.834Z,0.00
2019-05-18T00:17:41.817Z,0.00
2019-05-18T00:18:41.811Z,0.00
2019-05-18T00:19:41.779Z,0.00
2019-05-18T00:20:41.760Z,0.00
2019-05-18T00:21:41.741Z,0.00
2019-05-18T00:22:41.729Z,0.00
2019-05-18T00:23:41.725Z,0.00
2019-05-18T00:24:41.694Z,0.00
2019-05-18T00:25:41.668Z,0.00
2019-05-18T00:26:41.674Z,0.00
2019-05-18T00:27:41.642Z,0.00
2019-05-18T00:28:41.618Z,0.00
2019-05-18T00:29:41.621Z,0.00
2019-05-18T00:30:41.580Z,0.00
2019-05-18T00:31:41.565Z,0.00
2019-05-18T00:32:41.551Z,0.00
2019-05-18T00:33:41.524Z,0.00
2019-05-18T00:34:41.533Z,0.00
2019-05-18T00:35:41.493Z,0.00
2019-05-18T00:36:41.473Z,0.00
2019-05-18T00:37:41.456Z,0.00
2019-05-18T00:38:41.438Z,0.00
2019-05-18T00:39:41.421Z,0.00
2019-05-18T00:40:41.427Z,0.00
2019-05-18T00:41:41.384Z,0.00
2019-05-18T00:42:41.364Z,0.00
2019-05-18T00:43:41.347Z,0.00
2019-05-18T00:44:41.331Z,0.00
2019-05-18T00:45:41.309Z,0.00
2019-05-18T00:46:41.315Z,0.00
2019-05-18T00:47:42.390Z,0.00
2019-05-18T00:48:41.257Z,0.00
2019-05-18T00:49:41.249Z,0.00
2019-05-18T00:50:41.291Z,0.00
2019-05-18T00:51:41.211Z,0.00
2019-05-18T00:52:41.203Z,0.00
2019-05-18T00:53:41.174Z,0.00
2019-05-18T00:54:41.149Z,0.00
2019-05-18T00:55:41.139Z,0.00
2019-05-18T00:56:41.121Z,0.00
2019-05-18T00:57:41.095Z,0.00
2019-05-18T00:58:41.093Z,0.00
2019-05-18T00:59:41.063Z,0.00
2019-05-18T01:00:41.054Z,0.00
2019-05-18T01:01:41.032Z,0.00
2019-05-18T01:02:41.148Z,0.00
2019-05-18T01:03:40.996Z,0.00
2019-05-18T01:04:40.968Z,0.00
2019-05-18T01:05:40.990Z,0.00
2019-05-18T01:06:40.938Z,0.00
2019-05-18T01:07:40.911Z,0.00
2019-05-18T01:08:40.917Z,0.00
2019-05-18T01:09:40.879Z,0.00
2019-05-18T01:10:40.939Z,0.00
2019-05-18T01:11:40.839Z,0.00
2019-05-18T01:12:40.828Z,0.00
2019-05-18T01:13:40.803Z,0.00
2019-05-18T01:14:40.784Z,0.00
2019-05-18T01:15:40.786Z,0.00
2019-05-18T01:16:40.835Z,0.00
2019-05-18T01:17:40.729Z,0.00
2019-05-18T01:18:40.716Z,0.00
2019-05-18T01:19:40.716Z,0.00
2019-05-18T01:20:40.694Z,0.00
2019-05-18T01:21:40.656Z,0.00
2019-05-18T01:22:40.751Z,0.00
2019-05-18T01:23:40.639Z,0.00
2019-05-18T01:24:40.603Z,0.00
2019-05-18T01:25:40.585Z,0.00
2019-05-18T01:26:40.575Z,0.00
2019-05-18T01:27:40.553Z,0.00
2019-05-18T01:28:40.531Z,0.00
2019-05-18T01:29:40.536Z,0.00
2019-05-18T01:30:40.495Z,0.00
2019-05-18T01:31:40.483Z,0.00
2019-05-18T01:32:40.461Z,0.00
2019-05-18T01:33:40.439Z,0.00
2019-05-18T01:34:40.423Z,0.00
2019-05-18T01:35:40.423Z,0.00
2019-05-18T01:36:40.384Z,0.00
2019-05-18T01:37:40.367Z,0.00
2019-05-18T01:38:40.498Z,0.00
2019-05-18T01:39:40.335Z,0.00
2019-05-18T01:40:40.333Z,0.00
2019-05-18T01:41:40.293Z,0.00
2019-05-18T01:42:40.284Z,0.00
2019-05-18T01:43:40.315Z,0.00
2019-05-18T01:44:40.338Z,0.00
2019-05-18T01:45:40.219Z,0.00
2019-05-18T01:46:40.399Z,0.00
2019-05-18T01:47:40.188Z,0.00
2019-05-18T01:48:40.171Z,0.00
2019-05-18T01:49:40.160Z,0.00
2019-05-18T01:50:40.130Z,0.00
2019-05-18T01:51:40.117Z,0.00
2019-05-18T01:52:40.107Z,0.00
2019-05-18T01:53:40.075Z,0.00
2019-05-18T01:54:40.056Z,0.00
2019-05-18T01:55:40.039Z,0.00
2019-05-18T01:56:40.037Z,0.00
2019-05-18T01:57:40.006Z,0.00
2019-05-18T01:58:40.001Z,0.00
2019-05-18T01:59:39.964Z,0.00
2019-05-18T02:00:39.953Z,0.00
2019-05-18T02:01:39.932Z,0.00
2019-05-18T02:02:39.909Z,0.00
2019-05-18T02:03:39.897Z,0.00
2019-05-18T02:04:39.909Z,0.00
2019-05-18T02:05:39.854Z,0.00
2019-05-18T02:06:39.841Z,0.00
2019-05-18T02:07:39.823Z,0.00
2019-05-18T02:08:39.801Z,0.00
2019-05-18T02:09:39.783Z,0.00
2019-05-18T02:10:39.784Z,0.00
2019-05-18T02:11:39.769Z,0.00
2019-05-18T02:12:39.731Z,0.00
2019-05-18T02:13:39.760Z,0.00
2019-05-18T02:14:39.691Z,0.00
2019-05-18T02:15:39.706Z,0.00
2019-05-18T02:16:39.671Z,0.00
2019-05-18T02:17:39.640Z,0.00
2019-05-18T02:18:39.629Z,0.00
2019-05-18T02:19:39.607Z,0.00
2019-05-18T02:20:39.582Z,0.00
2019-05-18T02:21:39.572Z,0.00
2019-05-18T02:22:39.567Z,0.00
2019-05-18T02:23:39.534Z,0.00
2019-05-18T02:24:39.508Z,0.00
2019-05-18T02:25:39.489Z,0.00
2019-05-18T02:26:39.474Z,0.00
2019-05-18T02:27:39.459Z,0.00
2019-05-18T02:28:39.461Z,0.00
2019-05-18T02:29:39.424Z,0.00
2019-05-18T02:30:39.401Z,0.00
2019-05-18T02:31:39.382Z,0.00
2019-05-18T02:32:39.373Z,0.00
2019-05-18T02:33:39.356Z,0.00
2019-05-18T02:34:39.354Z,0.00
2019-05-18T02:35:39.325Z,0.00
2019-05-18T02:36:39.298Z,0.00
2019-05-18T02:37:39.315Z,0.00
2019-05-18T02:38:39.259Z,0.00
2019-05-18T02:39:39.251Z,0.00
2019-05-18T02:40:39.224Z,0.00
2019-05-18T02:41:39.204Z,0.00
2019-05-18T02:42:39.182Z,0.00
2019-05-18T02:43:39.190Z,0.00
2019-05-18T02:44:39.146Z,0.00
2019-05-18T02:45:39.132Z,0.00
2019-05-18T02:46:39.139Z,0.00
2019-05-18T02:47:39.096Z,0.00
2019-05-18T02:48:49.208Z,0.00
2019-05-18T02:49:39.055Z,0.00
2019-05-18T02:50:39.037Z,0.00
2019-05-18T02:51:39.018Z,0.00
2019-05-18T02:52:39.029Z,0.00
2019-05-18T02:53:38.983Z,0.00
2019-05-18T02:54:38.963Z,0.00
2019-05-18T02:55:38.966Z,0.00
2019-05-18T02:56:38.935Z,0.00
2019-05-18T02:57:38.908Z,0.00
2019-05-18T02:58:38.905Z,0.00
2019-05-18T02:59:38.873Z,0.00
2019-05-18T03:00:38.862Z,0.00
2019-05-18T03:01:38.832Z,0.00
2019-05-18T03:02:38.812Z,0.00
2019-05-18T03:03:38.822Z,0.00
2019-05-18T03:04:38.791Z,0.00
2019-05-18T03:05:38.816Z,0.00
2019-05-18T03:06:38.739Z,0.00
2019-05-18T03:07:38.808Z,0.00
2019-05-18T03:08:38.706Z,0.00
2019-05-18T03:09:38.683Z,0.00
2019-05-18T03:10:38.667Z,0.00
2019-05-18T03:11:38.644Z,4.00
2019-05-18T03:12:38.634Z,4.00
2019-05-18T03:13:38.643Z,0.00
2019-05-18T03:14:38.658Z,0.00
2019-05-18T03:15:38.586Z,4.00
2019-05-18T03:16:38.552Z,0.00
2019-05-18T03:17:38.547Z,4.00
2019-05-18T03:18:38.541Z,4.00
2019-05-18T03:19:38.527Z,4.00
2019-05-18T03:20:38.513Z,4.00
2019-05-18T03:21:38.489Z,4.00
2019-05-18T03:22:38.448Z,8.00
2019-05-18T03:23:38.426Z,8.00
2019-05-18T03:24:38.405Z,4.00
2019-05-18T03:25:38.406Z,12.00
2019-05-18T03:26:38.363Z,12.00
2019-05-18T03:27:38.370Z,12.00
2019-05-18T03:28:38.380Z,12.00
2019-05-18T03:29:38.383Z,16.00
2019-05-18T03:30:38.298Z,12.00
2019-05-18T03:31:38.275Z,16.00
2019-05-18T03:32:38.273Z,20.00
2019-05-18T03:33:38.239Z,20.00
2019-05-18T03:34:38.239Z,24.00
2019-05-18T03:35:38.295Z,24.00
2019-05-18T03:36:38.201Z,28.00
2019-05-18T03:37:38.222Z,28.00
2019-05-18T03:38:38.145Z,32.00
2019-05-18T03:39:38.133Z,32.00
2019-05-18T03:40:38.112Z,36.00
2019-05-18T03:41:38.089Z,40.00
2019-05-18T03:42:38.121Z,40.00
2019-05-18T03:43:38.050Z,48.00
2019-05-18T03:44:38.032Z,48.00
2019-05-18T03:45:38.021Z,56.00
2019-05-18T03:46:38.023Z,64.00
2019-05-18T03:47:38.076Z,68.00
2019-05-18T03:48:37.980Z,72.00
2019-05-18T03:49:37.996Z,80.00
2019-05-18T03:50:37.933Z,84.00
2019-05-18T03:51:37.902Z,88.00
2019-05-18T03:52:37.889Z,96.00
2019-05-18T03:53:37.899Z,100.00
2019-05-18T03:54:37.848Z,104.00
2019-05-18T03:55:37.843Z,108.00
2019-05-18T03:56:37.821Z,108.00
2019-05-18T03:57:37.810Z,120.00
2019-05-18T03:58:37.804Z,136.00
2019-05-18T03:59:37.759Z,144.00
2019-05-18T04:00:37.750Z,148.00
2019-05-18T04:01:37.723Z,152.00
2019-05-18T04:02:37.706Z,168.00
2019-05-18T04:03:37.723Z,188.00
2019-05-18T04:04:37.672Z,204.00
2019-05-18T04:05:37.668Z,216.00
2019-05-18T04:06:37.632Z,236.00
2019-05-18T04:07:37.624Z,248.00
2019-05-18T04:08:37.600Z,256.00
2019-05-18T04:09:37.584Z,276.00
2019-05-18T04:10:37.568Z,284.00
2019-05-18T04:11:37.566Z,292.00
2019-05-18T04:12:37.532Z,304.00
2019-05-18T04:13:37.505Z,316.00
2019-05-18T04:14:37.499Z,340.00
2019-05-18T04:15:37.465Z,356.00
2019-05-18T04:16:37.470Z,360.00
2019-05-18T04:17:37.427Z,376.00
2019-05-18T04:18:37.415Z,384.00
2019-05-18T04:19:46.450Z,380.00
2019-05-18T04:20:37.380Z,376.00
2019-05-18T04:21:37.361Z,396.00
2019-05-18T04:22:37.363Z,412.00
2019-05-18T04:23:37.324Z,428.00
2019-05-18T04:24:37.308Z,444.00
2019-05-18T04:25:37.286Z,448.00
2019-05-18T04:26:37.270Z,456.00
2019-05-18T04:27:37.250Z,452.00
2019-05-18T04:28:37.250Z,464.00
2019-05-18T04:29:37.234Z,464.00
2019-05-18T04:30:37.204Z,456.00
2019-05-18T04:31:37.180Z,368.00
2019-05-18T04:32:37.169Z,284.00
2019-05-18T04:33:37.145Z,288.00
2019-05-18T04:34:37.134Z,296.00
2019-05-18T04:35:37.130Z,308.00
2019-05-18T04:36:37.093Z,320.00
2019-05-18T04:37:37.102Z,324.00
2019-05-18T04:38:37.052Z,324.00
2019-05-18T04:39:37.036Z,316.00
2019-05-18T04:40:37.023Z,316.00
2019-05-18T04:41:37.016Z,316.00
2019-05-18T04:42:37.085Z,316.00
2019-05-18T04:43:36.981Z,316.00
2019-05-18T04:44:36.952Z,312.00
2019-05-18T04:45:36.936Z,312.00
2019-05-18T04:46:36.938Z,320.00
2019-05-18T04:47:36.894Z,324.00
2019-05-18T04:48:36.902Z,324.00
2019-05-18T04:49:36.858Z,328.00
2019-05-18T04:50:36.861Z,336.00
2019-05-18T04:51:36.830Z,340.00
2019-05-18T04:52:36.808Z,352.00
2019-05-18T04:53:36.793Z,340.00
2019-05-18T04:54:36.795Z,328.00
2019-05-18T04:55:36.748Z,320.00
2019-05-18T04:56:36.740Z,312.00
2019-05-18T04:57:36.713Z,300.00
2019-05-18T04:58:36.697Z,276.00
2019-05-18T04:59:36.679Z,256.00
2019-05-18T05:00:36.704Z,244.00
2019-05-18T05:01:36.656Z,244.00
2019-05-18T05:02:36.621Z,240.00
2019-05-18T05:03:36.604Z,240.00
2019-05-18T05:04:36.585Z,236.00
2019-05-18T05:05:36.587Z,236.00
2019-05-18T05:06:36.550Z,232.00
2019-05-18T05:07:36.537Z,232.00
2019-05-18T05:08:36.530Z,224.00
2019-05-18T05:09:36.495Z,216.00
2019-05-18T05:10:36.502Z,212.00
2019-05-18T05:11:36.460Z,212.00
2019-05-18T05:12:36.446Z,224.00
2019-05-18T05:13:36.425Z,228.00
2019-05-18T05:14:36.469Z,236.00
2019-05-18T05:15:36.390Z,248.00
2019-05-18T05:16:36.389Z,272.00
2019-05-18T05:17:36.358Z,296.00
2019-05-18T05:18:36.351Z,308.00
2019-05-18T05:19:36.322Z,312.00
2019-05-18T05:20:36.300Z,316.00
2019-05-18T05:21:36.282Z,320.00
2019-05-18T05:22:36.289Z,336.00
2019-05-18T05:23:36.248Z,352.00
2019-05-18T05:24:36.266Z,364.00
2019-05-18T05:25:36.235Z,392.00
2019-05-18T05:26:39.271Z,416.00
2019-05-18T05:27:36.195Z,428.00
2019-05-18T05:28:36.164Z,444.00
2019-05-18T05:29:36.138Z,440.00
2019-05-18T05:30:36.119Z,428.00
2019-05-18T05:31:36.102Z,404.00
2019-05-18T05:32:36.088Z,384.00
2019-05-18T05:33:36.087Z,376.00
2019-05-18T05:34:36.050Z,364.00
2019-05-18T05:35:37.852Z,352.00
2019-05-18T05:36:36.014Z,356.00
2019-05-18T05:37:35.995Z,368.00
2019-05-18T05:38:36.039Z,384.00
2019-05-18T05:39:35.988Z,396.00
2019-05-18T05:40:35.947Z,428.00
2019-05-18T05:41:35.969Z,480.00
2019-05-18T05:42:35.918Z,536.00
2019-05-18T05:43:35.897Z,572.00
2019-05-18T05:44:35.870Z,596.00
2019-05-18T05:45:35.854Z,620.00
2019-05-18T05:46:37.444Z,628.00
2019-05-18T05:47:35.841Z,664.00
2019-05-18T05:48:35.796Z,684.00
2019-05-18T05:49:35.781Z,684.00
2019-05-18T05:50:36.724Z,692.00
2019-05-18T05:51:35.745Z,640.00
2019-05-18T05:52:35.729Z,568.00
2019-05-18T05:53:35.731Z,536.00
2019-05-18T05:54:35.692Z,524.00
2019-05-18T05:55:35.676Z,528.00
2019-05-18T05:56:35.732Z,524.00
2019-05-18T05:57:35.636Z,504.00
2019-05-18T05:58:35.616Z,500.00
2019-05-18T05:59:35.618Z,504.00
2019-05-18T06:00:35.581Z,520.00
2019-05-18T06:01:35.562Z,552.00
2019-05-18T06:02:35.545Z,576.00
2019-05-18T06:03:35.524Z,588.00
2019-05-18T06:04:35.516Z,596.00
2019-05-18T06:05:35.506Z,600.00
2019-05-18T06:06:35.472Z,616.00
2019-05-18T06:07:35.457Z,624.00
2019-05-18T06:08:35.434Z,616.00
2019-05-18T06:09:35.420Z,620.00
2019-05-18T06:10:35.415Z,636.00
2019-05-18T06:11:35.392Z,644.00
2019-05-18T06:12:36.155Z,652.00
2019-05-18T06:13:36.183Z,648.00
2019-05-18T06:14:35.336Z,620.00
2019-05-18T06:15:35.315Z,600.00
2019-05-18T06:16:35.310Z,576.00
2019-05-18T06:17:35.296Z,520.00
2019-05-18T06:18:35.260Z,484.00
2019-05-18T06:19:35.240Z,464.00
2019-05-18T06:20:48.981Z,452.00
2019-05-18T06:21:35.205Z,436.00
2019-05-18T06:22:35.182Z,444.00
2019-05-18T06:23:35.182Z,460.00
2019-05-18T06:24:35.166Z,480.00
2019-05-18T06:25:35.132Z,504.00
2019-05-18T06:26:35.113Z,540.00
2019-05-18T06:27:35.109Z,580.00
2019-05-18T06:28:35.088Z,624.00
2019-05-18T06:29:35.082Z,660.00
2019-05-18T06:30:35.033Z,700.00
2019-05-18T06:31:35.018Z,720.00
2019-05-18T06:32:35.007Z,736.00
2019-05-18T06:33:35.004Z,752.00
2019-05-18T06:34:34.969Z,760.00
2019-05-18T06:35:34.971Z,772.00
2019-05-18T06:36:34.937Z,760.00
2019-05-18T06:37:34.915Z,756.00
2019-05-18T06:38:34.896Z,764.00
2019-05-18T06:39:34.880Z,768.00
2019-05-18T06:40:34.881Z,756.00
2019-05-18T06:41:34.851Z,732.00
2019-05-18T06:42:34.854Z,720.00
2019-05-18T06:43:34.813Z,700.00
2019-05-18T06:44:34.800Z,668.00
2019-05-18T06:45:34.777Z,656.00
2019-05-18T06:46:34.768Z,668.00
2019-05-18T06:47:34.760Z,684.00
2019-05-18T06:48:34.741Z,680.00
2019-05-18T06:49:34.701Z,688.00
2019-05-18T06:50:34.686Z,696.00
2019-05-18T06:51:34.669Z,696.00
2019-05-18T06:52:34.651Z,712.00
2019-05-18T06:53:34.651Z,716.00
2019-05-18T06:54:34.616Z,728.00
2019-05-18T06:55:34.612Z,748.00
2019-05-18T06:56:34.581Z,764.00
2019-05-18T06:57:35.214Z,792.00
2019-05-18T06:58:34.541Z,828.00
2019-05-18T06:59:34.526Z,852.00
2019-05-18T07:00:34.534Z,868.00
2019-05-18T07:01:34.502Z,876.00
2019-05-18T07:02:34.504Z,876.00
2019-05-18T07:03:34.517Z,876.00
2019-05-18T07:04:34.491Z,884.00
2019-05-18T07:05:34.553Z,884.00
2019-05-18T07:06:34.466Z,896.00
2019-05-18T07:07:34.492Z,900.00
2019-05-18T07:08:34.503Z,888.00
2019-05-18T07:09:34.480Z,884.00
2019-05-18T07:10:34.493Z,872.00
2019-05-18T07:11:34.508Z,848.00
2019-05-18T07:12:34.297Z,848.00
2019-05-18T07:13:34.299Z,848.00
2019-05-18T07:14:34.279Z,860.00
2019-05-18T07:15:34.242Z,880.00
2019-05-18T07:23:50.501Z,1564.00
2019-05-18T07:24:43.244Z,1700.00
2019-05-18T07:25:43.213Z,1864.00
2019-05-18T07:26:43.205Z,2076.00
2019-05-18T07:27:43.177Z,2304.00
2019-05-18T07:28:43.166Z,2532.00
2019-05-18T07:29:43.157Z,2660.00
2019-05-18T07:30:43.130Z,2788.00
2019-05-18T07:31:43.114Z,2936.00
2019-05-18T07:32:43.116Z,3052.00
2019-05-18T07:33:43.068Z,3140.00
2019-05-18T07:34:43.058Z,3300.00
2019-05-18T07:35:43.042Z,3488.00
2019-05-18T07:36:43.021Z,3604.00
2019-05-18T07:37:43.002Z,3732.00
2019-05-18T07:38:43.004Z,3836.00
2019-05-18T07:39:42.965Z,3896.00
2019-05-18T07:40:42.957Z,3908.00
2019-05-18T07:41:46.911Z,3832.00
2019-05-18T07:42:42.916Z,3756.00
2019-05-18T07:43:42.912Z,3684.00
2019-05-18T07:44:42.921Z,3572.00
2019-05-18T07:45:42.864Z,3412.00
2019-05-18T07:46:42.860Z,3292.00
2019-05-18T07:47:42.828Z,3164.00
2019-05-18T07:48:42.834Z,3080.00
2019-05-18T07:49:42.800Z,3020.00
2019-05-18T07:50:42.779Z,3020.00
2019-05-18T07:51:42.777Z,3044.00
2019-05-18T07:52:42.745Z,3084.00
2019-05-18T07:53:42.751Z,3188.00
2019-05-18T07:54:42.711Z,3268.00
2019-05-18T07:55:42.721Z,3360.00
2019-05-18T07:56:42.689Z,3440.00
2019-05-18T07:57:42.668Z,3432.00
2019-05-18T07:58:42.647Z,3496.00
2019-05-18T07:59:42.630Z,3548.00
2019-05-18T08:00:42.610Z,3592.00
2019-05-18T08:01:42.636Z,3668.00
2019-05-18T08:02:42.572Z,3648.00
2019-05-18T08:03:42.564Z,3348.00
2019-05-18T08:04:42.543Z,2964.00
2019-05-18T08:05:42.531Z,2756.00
2019-05-18T08:06:42.529Z,2656.00
2019-05-18T08:07:42.504Z,2540.00
2019-05-18T08:08:42.477Z,2524.00
2019-05-18T08:09:42.469Z,2672.00
2019-05-18T08:10:43.725Z,2820.00
2019-05-18T08:11:42.671Z,2956.00
2019-05-18T08:12:42.445Z,2788.00
2019-05-18T08:13:42.413Z,2604.00
2019-05-18T08:14:42.410Z,2652.00
2019-05-18T08:15:44.599Z,2748.00
2019-05-18T08:16:46.188Z,2936.00
2019-05-18T08:17:42.336Z,3160.00
2019-05-18T08:18:42.318Z,3156.00
2019-05-18T08:19:42.297Z,3140.00
2019-05-18T08:20:42.309Z,3080.00
2019-05-18T08:21:52.701Z,2924.00
2019-05-18T08:22:42.251Z,2928.00
2019-05-18T08:23:42.234Z,3112.00
2019-05-18T08:24:42.225Z,3308.00
2019-05-18T08:25:42.224Z,3676.00
2019-05-18T08:26:42.185Z,4120.00
2019-05-18T08:27:42.172Z,4268.00
2019-05-18T08:28:42.159Z,4228.00
2019-05-18T08:29:42.155Z,3836.00
2019-05-18T08:30:42.123Z,3808.00
2019-05-18T08:31:42.104Z,3612.00
2019-05-18T08:32:42.095Z,3600.00
2019-05-18T08:33:42.076Z,3716.00
2019-05-18T08:34:42.075Z,3592.00
2019-05-18T08:35:42.046Z,3396.00
2019-05-18T08:36:42.028Z,3336.00
2019-05-18T08:37:42.015Z,3316.00
2019-05-18T08:38:41.998Z,3308.00
2019-05-18T08:39:42.027Z,3272.00
2019-05-18T08:40:41.962Z,3272.00
2019-05-18T08:41:41.955Z,3376.00
2019-05-18T08:42:41.938Z,3372.00
2019-05-18T08:43:41.928Z,3292.00
2019-05-18T08:44:41.905Z,3264.00
2019-05-18T08:45:41.908Z,3300.00
2019-05-18T08:46:41.866Z,3304.00
2019-05-18T08:47:41.852Z,3328.00
2019-05-18T08:48:41.839Z,3348.00
2019-05-18T08:49:41.847Z,3452.00
2019-05-18T08:50:41.808Z,3560.00
2019-05-18T08:51:41.789Z,3720.00
2019-05-18T08:52:41.779Z,3712.00
2019-05-18T08:53:41.757Z,4024.00
2019-05-18T08:54:41.742Z,4256.00
2019-05-18T08:55:41.761Z,4220.00
2019-05-18T08:56:41.732Z,4120.00
2019-05-18T08:57:41.699Z,4032.00
2019-05-18T08:58:41.685Z,4148.00
2019-05-18T08:59:41.666Z,4128.00
2019-05-18T09:00:41.657Z,4096.00
2019-05-18T09:01:41.641Z,4088.00
2019-05-18T09:02:41.641Z,3968.00
2019-05-18T09:03:41.604Z,3728.00
2019-05-18T09:04:41.589Z,4208.00
2019-05-18T09:05:41.573Z,4060.00
2019-05-18T09:06:41.576Z,3908.00
2019-05-18T09:07:41.568Z,4452.00
2019-05-18T09:08:41.533Z,6120.00
2019-05-18T09:09:41.524Z,7768.00
2019-05-18T09:10:41.523Z,8184.00
2019-05-18T09:11:41.510Z,6984.00
2019-05-18T09:12:41.482Z,9528.00
2019-05-18T09:13:41.477Z,10376.00
2019-05-18T09:14:41.455Z,10084.00
2019-05-18T09:15:41.427Z,20160.00
2019-05-18T09:16:41.413Z,8464.00
2019-05-18T09:17:41.398Z,8252.00
2019-05-18T09:18:41.385Z,8160.00
2019-05-18T09:19:41.390Z,8052.00
2019-05-18T09:20:41.376Z,9452.00
2019-05-18T09:21:41.352Z,6864.00
2019-05-18T09:22:41.334Z,5244.00
2019-05-18T09:23:41.343Z,6152.00
2019-05-18T09:24:41.310Z,5764.00
2019-05-18T09:25:41.306Z,4724.00
2019-05-18T09:26:41.301Z,5676.00
2019-05-18T09:27:41.275Z,5712.00
2019-05-18T09:28:41.255Z,10576.00
2019-05-18T09:29:41.260Z,4900.00
2019-05-18T09:30:41.461Z,4884.00
2019-05-18T09:31:41.238Z,4176.00
2019-05-18T09:32:41.207Z,3608.00
2019-05-18T09:33:41.203Z,3220.00
2019-05-18T09:34:41.208Z,3304.00
2019-05-18T09:35:41.176Z,3512.00
2019-05-18T09:36:41.160Z,3572.00
2019-05-18T09:37:41.155Z,3760.00
2019-05-18T09:38:41.133Z,4024.00
2019-05-18T09:39:41.128Z,4140.00
2019-05-18T09:40:41.125Z,4216.00
2019-05-18T09:41:41.103Z,4172.00
2019-05-18T09:42:41.131Z,4320.00
2019-05-18T09:43:41.072Z,4644.00
2019-05-18T09:44:41.061Z,4720.00
2019-05-18T09:45:41.048Z,5236.00
2019-05-18T09:46:41.059Z,9180.00
2019-05-18T09:47:41.018Z,6844.00
2019-05-18T09:48:41.004Z,5412.00
2019-05-18T09:49:41.015Z,4664.00
2019-05-18T09:50:41.044Z,4608.00
2019-05-18T09:51:40.973Z,4520.00
2019-05-18T09:52:45.730Z,5516.00
2019-05-18T09:53:51.257Z,5668.00
2019-05-18T09:54:40.933Z,6416.00
2019-05-18T09:55:40.939Z,5784.00
2019-05-18T09:56:40.904Z,8188.00
2019-05-18T09:57:40.898Z,5104.00
2019-05-18T09:58:40.885Z,6364.00
2019-05-18T09:59:40.865Z,10396.00
2019-05-18T10:00:40.850Z,8232.00
2019-05-18T10:01:40.856Z,5256.00
2019-05-18T10:02:40.827Z,5128.00
2019-05-18T10:03:40.868Z,4612.00
2019-05-18T10:04:40.805Z,4264.00
2019-05-18T10:05:40.813Z,4884.00
2019-05-18T10:06:40.770Z,4608.00
2019-05-18T10:07:40.764Z,4372.00
2019-05-18T10:08:40.749Z,4232.00
2019-05-18T10:09:40.756Z,4508.00
2019-05-18T10:10:40.727Z,4620.00
2019-05-18T10:11:40.731Z,6044.00
2019-05-18T10:12:40.707Z,6028.00
2019-05-18T10:13:40.690Z,7488.00
2019-05-18T10:14:40.679Z,11572.00
2019-05-18T10:15:40.664Z,6532.00
2019-05-18T10:16:40.677Z,5272.00
2019-05-18T10:17:40.795Z,6292.00
2019-05-18T10:18:40.653Z,6908.00
2019-05-18T10:19:40.621Z,4656.00
2019-05-18T10:20:40.652Z,4184.00
2019-05-18T10:21:40.602Z,4520.00
2019-05-18T10:22:53.425Z,4480.00
2019-05-18T10:23:40.625Z,4708.00
2019-05-18T10:24:40.562Z,4336.00
2019-05-18T10:25:40.579Z,3508.00
2019-05-18T10:26:40.539Z,3856.00
2019-05-18T10:27:40.572Z,3992.00
2019-05-18T10:28:40.522Z,3960.00
2019-05-18T10:29:40.511Z,4148.00
2019-05-18T10:30:40.506Z,4152.00
2019-05-18T10:31:40.484Z,3868.00
2019-05-18T10:32:40.489Z,3732.00
2019-05-18T10:33:40.490Z,3588.00
2019-05-18T10:34:40.454Z,3512.00
2019-05-18T10:35:40.457Z,4448.00
2019-05-18T10:36:40.436Z,3400.00
2019-05-18T10:37:40.416Z,3600.00
2019-05-18T10:38:40.412Z,3556.00
2019-05-18T10:39:40.398Z,3324.00
2019-05-18T10:40:40.406Z,3404.00
2019-05-18T10:41:40.397Z,3436.00
2019-05-18T10:42:40.371Z,3444.00
2019-05-18T10:43:40.355Z,3720.00
2019-05-18T10:44:40.376Z,4080.00
2019-05-18T10:45:44.525Z,4264.00
2019-05-18T10:46:40.326Z,4400.00
2019-05-18T10:47:40.319Z,4140.00
2019-05-18T10:48:40.332Z,4096.00
2019-05-18T10:49:40.307Z,4056.00
2019-05-18T10:50:40.296Z,4672.00
2019-05-18T10:51:40.291Z,5356.00
2019-05-18T10:52:40.263Z,4676.00
2019-05-18T10:53:40.259Z,4280.00
2019-05-18T10:54:40.264Z,4752.00
2019-05-18T10:55:40.286Z,5564.00
2019-05-18T10:56:40.261Z,5168.00
2019-05-18T10:57:40.216Z,4308.00
2019-05-18T10:58:40.207Z,4256.00
2019-05-18T10:59:40.204Z,4092.00
2019-05-18T11:00:40.189Z,4220.00
2019-05-18T11:01:43.587Z,4216.00
2019-05-18T11:02:40.184Z,4440.00
2019-05-18T11:03:40.158Z,4424.00
2019-05-18T11:04:40.166Z,3896.00
2019-05-18T11:05:40.138Z,3912.00
2019-05-18T11:06:40.125Z,4264.00
2019-05-18T11:07:40.117Z,4232.00
2019-05-18T11:08:40.130Z,3904.00
2019-05-18T11:09:40.100Z,3644.00
2019-05-18T11:10:40.083Z,3940.00
2019-05-18T11:11:40.085Z,4428.00
2019-05-18T11:12:40.071Z,4540.00
2019-05-18T11:13:40.051Z,4384.00
2019-05-18T11:14:40.062Z,4120.00
2019-05-18T11:15:40.032Z,3900.00
2019-05-18T11:16:40.027Z,4036.00
2019-05-18T11:17:40.011Z,4428.00
2019-05-18T11:18:40.015Z,4200.00
2019-05-18T11:19:39.998Z,4080.00
2019-05-18T11:20:39.981Z,3896.00
2019-05-18T11:21:39.970Z,3740.00
2019-05-18T11:22:39.958Z,3348.00
2019-05-18T11:23:43.683Z,3380.00
2019-05-18T11:24:39.936Z,3560.00
2019-05-18T11:25:39.924Z,3836.00
2019-05-18T11:26:39.915Z,3948.00
2019-05-18T11:27:39.902Z,3868.00
2019-05-18T11:28:39.891Z,3864.00
2019-05-18T11:29:39.902Z,3992.00
2019-05-18T11:30:39.867Z,3996.00
2019-05-18T11:31:39.857Z,3984.00
2019-05-18T11:32:39.865Z,3820.00
2019-05-18T11:33:39.844Z,3764.00
2019-05-18T11:34:39.823Z,3740.00
2019-05-18T11:35:39.837Z,3780.00
2019-05-18T11:36:39.811Z,3788.00
2019-05-18T11:37:39.792Z,3900.00
2019-05-18T11:38:39.778Z,4116.00
2019-05-18T11:39:39.772Z,4068.00
2019-05-18T11:40:39.757Z,4088.00
2019-05-18T11:41:39.760Z,3872.00
2019-05-18T11:42:39.814Z,3888.00
2019-05-18T11:43:39.739Z,3952.00
2019-05-18T11:44:39.716Z,3896.00
2019-05-18T11:45:39.704Z,3860.00
2019-05-18T11:46:39.697Z,3852.00
2019-05-18T11:47:39.676Z,3736.00
2019-05-18T11:48:39.667Z,3776.00
2019-05-18T11:49:39.672Z,3816.00
2019-05-18T11:50:39.747Z,3812.00
2019-05-18T11:51:39.630Z,3900.00
2019-05-18T11:52:39.618Z,4024.00
2019-05-18T11:53:39.608Z,3900.00
2019-05-18T11:54:39.612Z,3740.00
2019-05-18T11:55:39.585Z,3688.00
2019-05-18T11:56:39.688Z,3636.00
2019-05-18T11:57:39.560Z,3704.00
2019-05-18T11:58:39.551Z,3780.00
2019-05-18T11:59:39.558Z,3896.00
2019-05-18T12:00:39.521Z,3812.00
2019-05-18T12:01:39.530Z,3596.00
2019-05-18T12:02:39.568Z,3660.00
2019-05-18T12:03:39.490Z,3652.00
2019-05-18T12:04:39.494Z,3856.00
2019-05-18T12:05:39.479Z,4116.00
2019-05-18T12:06:39.476Z,4876.00
2019-05-18T12:07:39.444Z,4480.00
2019-05-18T12:08:39.429Z,4460.00
2019-05-18T12:09:39.420Z,4132.00
2019-05-18T12:10:39.437Z,3888.00
2019-05-18T12:11:39.411Z,3380.00
2019-05-18T12:12:39.394Z,3060.00
2019-05-18T12:13:39.379Z,3116.00
2019-05-18T12:14:39.370Z,3020.00
2019-05-18T12:15:39.366Z,2824.00
2019-05-18T12:16:39.350Z,2548.00
2019-05-18T12:17:39.364Z,2416.00
2019-05-18T12:18:39.354Z,2680.00
2019-05-18T12:19:39.314Z,2320.00
2019-05-18T12:20:39.336Z,2380.00
2019-05-18T12:21:39.300Z,2300.00
2019-05-18T12:22:39.297Z,2292.00
2019-05-18T12:23:39.291Z,2352.00
2019-05-18T12:24:39.256Z,2656.00
2019-05-18T12:25:39.259Z,2396.00
2019-05-18T12:26:39.238Z,2300.00
2019-05-18T12:27:39.377Z,2424.00
2019-05-18T12:28:39.216Z,2392.00
2019-05-18T12:29:39.237Z,2168.00
2019-05-18T12:30:39.191Z,2292.00
2019-05-18T12:31:39.186Z,2236.00
2019-05-18T12:32:39.172Z,1848.00
2019-05-18T12:33:39.161Z,2000.00
2019-05-18T12:34:39.144Z,2192.00
2019-05-18T12:35:39.161Z,1860.00
2019-05-18T12:36:39.127Z,2008.00
2019-05-18T12:37:39.115Z,2012.00
2019-05-18T12:38:39.118Z,2272.00
2019-05-18T12:39:39.099Z,2272.00